METAR Data
IDs: Format: Raw Decoded Include TAF

Data at: 1331 UTC 26 Feb 2021

METAR for:KCPW (Wolf Creek Pass, CO, US)
Text:KCPW 261315Z AUTO 22016G25KT 10SM SCT012 BKN110 M15/M15 A2991 RMK AO2
Temperature:-15.0°C ( 5°F)
Dewpoint:-15.0°C ( 5°F) [RH = 100%]
Pressure (altimeter):29.91 inches Hg (1013.0 mb)
Winds:from the SW (220 degrees) at 18 MPH (16 knots; 8.2 m/s) gusting to 29 MPH (25 knots; 12.9 m/s)
Visibility:10 or more sm (16+ km)
Ceiling:11000 feet AGL
Clouds: scattered clouds at 1200 feet AGL, broken clouds at 11000 feet AGL
QC Flag:automated observation with no human augmentation